createdAt,value
2017-03-17T00:00:18.002Z,924.96
2017-03-17T00:00:37.369Z,924.96
2017-03-17T00:00:56.745Z,925
2017-03-17T00:01:16.121Z,924.96
2017-03-17T00:01:35.482Z,924.98
2017-03-17T00:01:54.847Z,925
2017-03-17T00:02:14.257Z,924.99
2017-03-17T00:02:33.164Z,925.02
2017-03-17T00:02:52.521Z,925
2017-03-17T00:03:11.377Z,925.03
2017-03-17T00:03:30.748Z,925
2017-03-17T00:03:50.104Z,925.03
2017-03-17T00:04:09.485Z,925.01
2017-03-17T00:04:28.337Z,925.06
2017-03-17T00:04:47.719Z,925.05
2017-03-17T00:05:07.099Z,925.05
2017-03-17T00:05:26.456Z,925.07
2017-03-17T00:05:46.573Z,925.09
2017-03-17T00:06:05.961Z,925.11
2017-03-17T00:06:25.389Z,925.12
2017-03-17T00:06:43.724Z,925.13
2017-03-17T00:07:03.058Z,925.09
2017-03-17T00:07:22.397Z,925.09
2017-03-17T00:07:41.233Z,925.12
2017-03-17T00:08:13.120Z,925.11
2017-03-17T00:08:32.462Z,925.18
2017-03-17T00:08:51.806Z,925.2
2017-03-17T00:09:10.095Z,925.2
2017-03-17T00:09:29.414Z,925.23
2017-03-17T00:09:49.206Z,925.24
2017-03-17T00:10:08.613Z,925.19
2017-03-17T00:10:27.431Z,925.2
2017-03-17T00:10:45.749Z,925.22
2017-03-17T00:11:04.046Z,925.23
2017-03-17T00:11:23.385Z,925.23
2017-03-17T00:11:42.723Z,925.23
2017-03-17T00:12:02.040Z,925.25
2017-03-17T00:12:21.431Z,925.25
2017-03-17T00:12:40.238Z,925.27
2017-03-17T00:12:59.566Z,925.27
2017-03-17T00:13:18.395Z,925.29
2017-03-17T00:13:37.748Z,925.3
2017-03-17T00:13:57.117Z,925.24
2017-03-17T00:14:16.465Z,925.25
2017-03-17T00:14:35.306Z,925.26
2017-03-17T00:14:54.631Z,925.24
2017-03-17T00:15:13.947Z,925.26
2017-03-17T00:15:33.302Z,925.27
2017-03-17T00:15:52.627Z,925.27
2017-03-17T00:16:11.448Z,925.29
2017-03-17T00:16:30.822Z,925.25
2017-03-17T00:16:50.177Z,925.31
2017-03-17T00:17:09.555Z,925.3
2017-03-17T00:17:28.914Z,925.27
2017-03-17T00:17:47.711Z,925.31
2017-03-17T00:18:07.027Z,925.29
2017-03-17T00:18:25.818Z,925.29
2017-03-17T00:18:45.155Z,925.28
2017-03-17T00:19:03.980Z,925.27
2017-03-17T00:19:23.345Z,925.25
2017-03-17T00:19:42.677Z,925.24
2017-03-17T00:20:01.995Z,925.25
2017-03-17T00:20:21.305Z,925.27
2017-03-17T00:20:40.612Z,925.29
2017-03-17T00:20:59.976Z,925.27
2017-03-17T00:21:18.806Z,925.28
2017-03-17T00:21:38.173Z,925.3
2017-03-17T00:21:57.308Z,925.28
2017-03-17T00:22:16.192Z,925.28
2017-03-17T00:22:35.884Z,925.29
2017-03-17T00:22:54.980Z,925.28
2017-03-17T00:23:13.775Z,925.32
2017-03-17T00:23:32.678Z,925.31
2017-03-17T00:23:51.517Z,925.32
2017-03-17T00:24:10.838Z,925.26
2017-03-17T00:24:30.602Z,925.33
2017-03-17T00:24:49.977Z,925.3
2017-03-17T00:25:09.534Z,925.32
2017-03-17T00:25:28.833Z,925.32
2017-03-17T00:25:48.164Z,925.34
2017-03-17T00:26:06.975Z,925.32
2017-03-17T00:26:26.312Z,925.3
2017-03-17T00:26:45.109Z,925.3
2017-03-17T00:27:04.631Z,925.36
2017-03-17T00:27:23.936Z,925.37
2017-03-17T00:27:43.269Z,925.35
2017-03-17T00:28:02.080Z,925.33
2017-03-17T00:28:21.421Z,925.33
2017-03-17T00:28:40.235Z,925.34
2017-03-17T00:28:59.079Z,925.34
2017-03-17T00:29:18.403Z,925.35
2017-03-17T00:29:37.744Z,925.34
2017-03-17T00:29:56.813Z,925.36
2017-03-17T00:30:15.830Z,925.35
2017-03-17T00:30:35.152Z,925.34
2017-03-17T00:30:54.481Z,925.35
2017-03-17T00:31:13.820Z,925.32
2017-03-17T00:31:32.643Z,925.33
2017-03-17T00:31:52.057Z,925.34
2017-03-17T00:32:11.398Z,925.33
2017-03-17T00:32:30.747Z,925.33
2017-03-17T00:32:50.074Z,925.31
2017-03-17T00:33:09.395Z,925.33
2017-03-17T00:33:28.310Z,925.33
2017-03-17T00:33:46.618Z,925.31
2017-03-17T00:34:06.028Z,925.35
2017-03-17T00:34:24.824Z,925.38
2017-03-17T00:34:43.615Z,925.36
2017-03-17T00:35:03.051Z,925.36
2017-03-17T00:35:22.378Z,925.33
2017-03-17T00:35:41.718Z,925.34
2017-03-17T00:36:01.037Z,925.35
2017-03-17T00:36:19.855Z,925.34
2017-03-17T00:36:38.674Z,925.35
2017-03-17T00:36:57.989Z,925.37
2017-03-17T00:37:17.326Z,925.33
2017-03-17T00:37:36.654Z,925.37
2017-03-17T00:37:55.544Z,925.35
2017-03-17T00:38:14.346Z,925.36
2017-03-17T00:38:33.672Z,925.36
2017-03-17T00:38:53.004Z,925.32
2017-03-17T00:39:12.320Z,925.31
2017-03-17T00:39:31.639Z,925.35
2017-03-17T00:39:50.470Z,925.39
2017-03-17T00:40:23.268Z,925.38
2017-03-17T00:40:43.435Z,925.37
2017-03-17T00:41:02.780Z,925.41
2017-03-17T00:41:22.121Z,925.38
2017-03-17T00:41:40.940Z,925.44
2017-03-17T00:42:00.261Z,925.41
2017-03-17T00:42:19.090Z,925.43
2017-03-17T00:42:38.505Z,925.39
2017-03-17T00:42:57.817Z,925.37
2017-03-17T00:43:16.678Z,925.42
2017-03-17T00:43:34.950Z,925.46
2017-03-17T00:43:54.289Z,925.43
2017-03-17T00:44:13.089Z,925.47
2017-03-17T00:44:32.403Z,925.42
2017-03-17T00:44:51.752Z,925.44
2017-03-17T00:45:10.550Z,925.43
2017-03-17T00:45:29.351Z,925.43
2017-03-17T00:45:48.148Z,925.45
2017-03-17T00:46:06.964Z,925.44
2017-03-17T00:46:26.323Z,925.45
2017-03-17T00:46:45.685Z,925.42
2017-03-17T00:47:05.091Z,925.48
2017-03-17T00:47:24.422Z,925.48
2017-03-17T00:47:57.732Z,925.5
2017-03-17T00:48:17.066Z,925.49
2017-03-17T00:48:36.402Z,925.5
2017-03-17T00:48:55.220Z,925.49
2017-03-17T00:49:14.542Z,925.49
2017-03-17T00:49:33.339Z,925.5
2017-03-17T00:49:52.652Z,925.53
2017-03-17T00:50:12.165Z,925.52
2017-03-17T00:50:31.497Z,925.52
2017-03-17T00:50:50.332Z,925.51
2017-03-17T00:51:09.665Z,925.51
2017-03-17T00:51:29.008Z,925.5
2017-03-17T00:52:02.149Z,925.53
2017-03-17T00:52:20.941Z,925.53
2017-03-17T00:52:54.248Z,925.51
2017-03-17T00:53:13.043Z,925.5
2017-03-17T00:53:32.417Z,925.51
2017-03-17T00:53:51.745Z,925.52
2017-03-17T00:54:11.084Z,925.49
2017-03-17T00:54:30.499Z,925.52
2017-03-17T00:54:49.325Z,925.51
2017-03-17T00:55:08.828Z,925.51
2017-03-17T00:55:27.617Z,925.48
2017-03-17T00:55:46.964Z,925.48
2017-03-17T00:56:06.287Z,925.47
2017-03-17T00:56:25.843Z,925.47
2017-03-17T00:56:44.657Z,925.54
2017-03-17T00:57:03.974Z,925.52
2017-03-17T00:57:23.377Z,925.51
2017-03-17T00:57:43.483Z,925.48
2017-03-17T00:58:02.974Z,925.47
2017-03-17T00:58:22.086Z,925.52
2017-03-17T00:58:40.954Z,925.5
2017-03-17T00:59:00.334Z,925.5
2017-03-17T00:59:19.778Z,925.5
2017-03-17T00:59:39.094Z,925.51
2017-03-17T00:59:57.905Z,925.52
2017-03-17T01:00:17.227Z,925.53
2017-03-17T01:00:36.567Z,925.51
2017-03-17T01:00:56.283Z,925.52
2017-03-17T01:01:15.925Z,925.52
2017-03-17T01:01:35.246Z,925.5
2017-03-17T01:01:54.191Z,925.5
2017-03-17T01:02:13.003Z,925.49
2017-03-17T01:02:32.345Z,925.51
2017-03-17T01:02:51.180Z,925.5
2017-03-17T01:03:10.527Z,925.49
2017-03-17T01:03:29.846Z,925.52
2017-03-17T01:03:48.641Z,925.54
2017-03-17T01:04:08.091Z,925.51
2017-03-17T01:04:27.424Z,925.49
2017-03-17T01:04:46.736Z,925.47
2017-03-17T01:05:06.096Z,925.47
2017-03-17T01:05:24.883Z,925.52
2017-03-17T01:05:44.227Z,925.49
2017-03-17T01:06:03.568Z,925.47
2017-03-17T01:06:22.930Z,925.46
2017-03-17T01:06:41.226Z,925.45
2017-03-17T01:07:00.614Z,925.47
2017-03-17T01:07:19.425Z,925.43
2017-03-17T01:07:38.757Z,925.48
2017-03-17T01:07:58.081Z,925.45
2017-03-17T01:08:16.884Z,925.48
2017-03-17T01:08:36.199Z,925.47
2017-03-17T01:08:55.526Z,925.51
2017-03-17T01:09:14.875Z,925.45
2017-03-17T01:09:34.170Z,925.51
2017-03-17T01:09:53.486Z,925.47
2017-03-17T01:10:26.779Z,925.49
2017-03-17T01:10:46.106Z,925.5
2017-03-17T01:11:05.424Z,925.52
2017-03-17T01:11:24.747Z,925.5
2017-03-17T01:11:44.082Z,925.47
2017-03-17T01:12:03.393Z,925.48
2017-03-17T01:12:21.705Z,925.45
2017-03-17T01:12:40.542Z,925.45
2017-03-17T01:12:59.374Z,925.46
2017-03-17T01:13:18.723Z,925.49
2017-03-17T01:13:37.545Z,925.48
2017-03-17T01:13:56.375Z,925.45
2017-03-17T01:14:15.704Z,925.46
2017-03-17T01:14:35.048Z,925.48
2017-03-17T01:14:54.359Z,925.47
2017-03-17T01:15:13.158Z,925.49
2017-03-17T01:15:32.487Z,925.47
2017-03-17T01:15:51.826Z,925.46
2017-03-17T01:16:11.163Z,925.47
2017-03-17T01:16:29.991Z,925.46
2017-03-17T01:16:49.343Z,925.46
2017-03-17T01:17:08.680Z,925.46
2017-03-17T01:17:28.011Z,925.49
2017-03-17T01:17:46.816Z,925.5
2017-03-17T01:18:06.133Z,925.46
2017-03-17T01:18:25.464Z,925.48
2017-03-17T01:18:44.792Z,925.47
2017-03-17T01:19:03.607Z,925.5
2017-03-17T01:19:22.930Z,925.48
2017-03-17T01:19:42.244Z,925.49
2017-03-17T01:20:01.580Z,925.44
2017-03-17T01:20:20.904Z,925.42
2017-03-17T01:20:40.252Z,925.43
2017-03-17T01:20:59.057Z,925.41
2017-03-17T01:21:18.423Z,925.38
2017-03-17T01:21:37.763Z,925.38
2017-03-17T01:21:56.052Z,925.42
2017-03-17T01:22:14.861Z,925.39
2017-03-17T01:22:34.192Z,925.38
2017-03-17T01:22:53.512Z,925.36
2017-03-17T01:23:12.838Z,925.35
2017-03-17T01:23:32.183Z,925.37
2017-03-17T01:23:51.523Z,925.39
2017-03-17T01:24:10.327Z,925.39
2017-03-17T01:24:29.353Z,925.37
2017-03-17T01:24:48.154Z,925.38
2017-03-17T01:25:07.485Z,925.36
2017-03-17T01:25:26.811Z,925.38
2017-03-17T01:25:46.139Z,925.41
2017-03-17T01:26:05.483Z,925.39
2017-03-17T01:26:24.285Z,925.41
2017-03-17T01:26:43.587Z,925.37
2017-03-17T01:27:03.004Z,925.34
2017-03-17T01:27:22.331Z,925.38
2017-03-17T01:27:41.649Z,925.39
2017-03-17T01:28:00.466Z,925.38
2017-03-17T01:28:19.838Z,925.39
2017-03-17T01:28:39.182Z,925.38
2017-03-17T01:28:58.502Z,925.39
2017-03-17T01:29:17.837Z,925.38
2017-03-17T01:29:37.168Z,925.41
2017-03-17T01:29:56.523Z,925.4
2017-03-17T01:30:15.455Z,925.4
2017-03-17T01:30:34.836Z,925.39
2017-03-17T01:30:54.178Z,925.39
2017-03-17T01:31:13.511Z,925.41
2017-03-17T01:31:32.827Z,925.38
2017-03-17T01:31:52.418Z,925.39
2017-03-17T01:32:11.273Z,925.4
2017-03-17T01:32:30.586Z,925.43
2017-03-17T01:32:50.040Z,925.44
2017-03-17T01:33:09.461Z,925.43
2017-03-17T01:33:28.853Z,925.4
2017-03-17T01:33:48.172Z,925.38
2017-03-17T01:34:07.530Z,925.43
2017-03-17T01:34:26.874Z,925.41
2017-03-17T01:34:46.188Z,925.42
2017-03-17T01:35:05.524Z,925.43
2017-03-17T01:35:24.861Z,925.46
2017-03-17T01:35:44.252Z,925.46
2017-03-17T01:36:03.584Z,925.46
2017-03-17T01:36:22.376Z,925.46
2017-03-17T01:36:41.725Z,925.48
2017-03-17T01:37:01.112Z,925.49
2017-03-17T01:37:19.918Z,925.49
2017-03-17T01:37:39.251Z,925.5
2017-03-17T01:37:58.045Z,925.47
2017-03-17T01:38:17.356Z,925.49
2017-03-17T01:38:36.720Z,925.49
2017-03-17T01:38:55.545Z,925.48
2017-03-17T01:39:14.889Z,925.49
2017-03-17T01:39:34.209Z,925.44
2017-03-17T01:39:53.578Z,925.49
2017-03-17T01:40:12.366Z,925.46
2017-03-17T01:40:31.160Z,925.49
2017-03-17T01:40:50.503Z,925.5
2017-03-17T01:41:09.327Z,925.5
2017-03-17T01:41:28.194Z,925.49
2017-03-17T01:41:47.530Z,925.47
2017-03-17T01:42:06.853Z,925.46
2017-03-17T01:42:25.692Z,925.47
2017-03-17T01:42:45.010Z,925.45
2017-03-17T01:43:03.856Z,925.48
2017-03-17T01:43:23.192Z,925.46
2017-03-17T01:43:42.518Z,925.48
2017-03-17T01:44:01.328Z,925.49
2017-03-17T01:44:20.128Z,925.42
2017-03-17T01:44:39.463Z,925.48
2017-03-17T01:44:58.268Z,925.44
2017-03-17T01:45:17.618Z,925.48
2017-03-17T01:45:36.439Z,925.45
2017-03-17T01:45:55.758Z,925.42
2017-03-17T01:46:15.080Z,925.43
2017-03-17T01:46:33.886Z,925.44
2017-03-17T01:46:53.325Z,925.44
2017-03-17T01:47:12.146Z,925.43
2017-03-17T01:47:31.457Z,925.42
2017-03-17T01:47:50.277Z,925.46
2017-03-17T01:48:09.606Z,925.42
2017-03-17T01:48:28.934Z,925.4
2017-03-17T01:48:48.248Z,925.44
2017-03-17T01:49:06.546Z,925.45
2017-03-17T01:49:25.895Z,925.43
2017-03-17T01:49:45.230Z,925.41
2017-03-17T01:50:04.571Z,925.42
2017-03-17T01:50:23.881Z,925.44
2017-03-17T01:50:42.672Z,925.43
2017-03-17T01:51:01.986Z,925.44
2017-03-17T01:51:20.803Z,925.44
2017-03-17T01:51:40.159Z,925.44
2017-03-17T01:51:58.974Z,925.41
2017-03-17T01:52:17.812Z,925.43
2017-03-17T01:52:37.123Z,925.41
2017-03-17T01:52:56.434Z,925.44
2017-03-17T01:53:15.245Z,925.42
2017-03-17T01:53:34.577Z,925.46
2017-03-17T01:53:53.920Z,925.41
2017-03-17T01:54:13.232Z,925.41
2017-03-17T01:54:32.552Z,925.43
2017-03-17T01:54:51.907Z,925.4
2017-03-17T01:55:11.211Z,925.39
2017-03-17T01:55:30.006Z,925.4
2017-03-17T01:55:49.329Z,925.37
2017-03-17T01:56:08.153Z,925.39
2017-03-17T01:56:27.495Z,925.37
2017-03-17T01:56:46.842Z,925.33
2017-03-17T01:57:06.204Z,925.35
2017-03-17T01:57:25.068Z,925.36
2017-03-17T01:57:44.402Z,925.34
2017-03-17T01:58:03.774Z,925.34
2017-03-17T01:58:23.095Z,925.35
2017-03-17T01:58:42.420Z,925.33
2017-03-17T01:59:01.785Z,925.34
2017-03-17T01:59:21.146Z,925.31
2017-03-17T01:59:40.471Z,925.32
2017-03-17T01:59:59.835Z,925.33
2017-03-17T02:00:18.658Z,925.36
2017-03-17T02:00:37.988Z,925.37
2017-03-17T02:00:56.787Z,925.34
2017-03-17T02:01:16.145Z,925.35
2017-03-17T02:01:34.950Z,925.34
2017-03-17T02:01:54.101Z,925.35
2017-03-17T02:02:13.461Z,925.39
2017-03-17T02:02:32.286Z,925.35
2017-03-17T02:02:51.633Z,925.35
2017-03-17T02:03:10.946Z,925.35
2017-03-17T02:03:30.259Z,925.39
2017-03-17T02:03:49.071Z,925.37
2017-03-17T02:04:07.881Z,925.4
2017-03-17T02:04:27.237Z,925.37
2017-03-17T02:04:46.581Z,925.37
2017-03-17T02:05:05.943Z,925.34
2017-03-17T02:05:25.240Z,925.36
2017-03-17T02:05:44.557Z,925.36
2017-03-17T02:06:03.876Z,925.35
2017-03-17T02:06:23.204Z,925.39
2017-03-17T02:06:42.526Z,925.38
2017-03-17T02:07:01.847Z,925.34
2017-03-17T02:07:21.193Z,925.36
2017-03-17T02:07:39.995Z,925.39
2017-03-17T02:07:59.333Z,925.33
2017-03-17T02:08:18.137Z,925.31
2017-03-17T02:08:36.967Z,925.35
2017-03-17T02:08:56.309Z,925.33
2017-03-17T02:09:15.643Z,925.35
2017-03-17T02:09:34.456Z,925.36
2017-03-17T02:09:53.806Z,925.34
2017-03-17T02:10:13.316Z,925.35
2017-03-17T02:10:32.147Z,925.35
2017-03-17T02:10:50.969Z,925.36
2017-03-17T02:11:10.325Z,925.37
2017-03-17T02:11:29.165Z,925.34
2017-03-17T02:11:47.467Z,925.35
2017-03-17T02:12:06.285Z,925.37
2017-03-17T02:12:25.623Z,925.38
2017-03-17T02:12:44.973Z,925.37
2017-03-17T02:13:04.299Z,925.35
2017-03-17T02:13:23.667Z,925.35
2017-03-17T02:13:43.034Z,925.36
2017-03-17T02:14:02.369Z,925.41
2017-03-17T02:14:21.747Z,925.4
2017-03-17T02:14:41.125Z,925.4
2017-03-17T02:15:00.542Z,925.41
2017-03-17T02:15:18.870Z,925.41
2017-03-17T02:15:38.279Z,925.42
2017-03-17T02:15:57.650Z,925.43
2017-03-17T02:16:17.033Z,925.45
2017-03-17T02:16:34.855Z,925.44
2017-03-17T02:16:54.339Z,925.46
2017-03-17T02:17:13.173Z,925.42
2017-03-17T02:17:32.097Z,925.45
2017-03-17T02:17:50.974Z,925.46
2017-03-17T02:18:09.815Z,925.48
2017-03-17T02:18:29.168Z,925.44
2017-03-17T02:18:48.033Z,925.44
2017-03-17T02:19:07.446Z,925.42
2017-03-17T02:19:26.825Z,925.45
2017-03-17T02:19:46.193Z,925.42
2017-03-17T02:20:05.557Z,925.45
2017-03-17T02:20:24.409Z,925.4
2017-03-17T02:20:43.792Z,925.46
2017-03-17T02:21:03.139Z,925.44
2017-03-17T02:21:21.972Z,925.45
2017-03-17T02:21:40.837Z,925.39
2017-03-17T02:22:00.235Z,925.43
2017-03-17T02:22:19.069Z,925.43
2017-03-17T02:22:38.474Z,925.39
2017-03-17T02:22:57.839Z,925.39
2017-03-17T02:23:17.206Z,925.39
2017-03-17T02:23:36.631Z,925.4
2017-03-17T02:23:55.496Z,925.39
2017-03-17T02:24:14.856Z,925.39
2017-03-17T02:24:34.237Z,925.38
2017-03-17T02:24:53.643Z,925.34
2017-03-17T02:25:13.011Z,925.36
2017-03-17T02:25:32.414Z,925.36
2017-03-17T02:26:35.631Z,925.38
2017-03-17T02:26:54.631Z,925.38
2017-03-17T02:27:13.466Z,925.4
2017-03-17T02:27:32.805Z,925.42
2017-03-17T02:27:51.665Z,925.37
2017-03-17T02:28:10.527Z,925.42
2017-03-17T02:28:29.896Z,925.38
2017-03-17T02:28:48.740Z,925.4
2017-03-17T02:29:08.094Z,925.41
2017-03-17T02:29:27.458Z,925.37
2017-03-17T02:29:46.820Z,925.38
2017-03-17T02:30:06.180Z,925.34
2017-03-17T02:30:25.040Z,925.37
2017-03-17T02:30:44.417Z,925.37
2017-03-17T02:31:03.813Z,925.34
2017-03-17T02:31:22.677Z,925.34
2017-03-17T02:31:42.065Z,925.33
2017-03-17T02:32:00.934Z,925.33
2017-03-17T02:32:20.308Z,925.34
2017-03-17T02:32:39.201Z,925.33
2017-03-17T02:32:58.624Z,925.36
2017-03-17T02:33:17.463Z,925.32
2017-03-17T02:33:36.837Z,925.3
2017-03-17T02:33:56.202Z,925.31
2017-03-17T02:34:15.604Z,925.32
2017-03-17T02:34:33.943Z,925.32
2017-03-17T02:34:53.332Z,925.32
2017-03-17T02:36:02.695Z,925.31
2017-03-17T02:36:21.539Z,925.27
2017-03-17T02:36:45.354Z,925.27
2017-03-17T02:37:04.362Z,925.26
2017-03-17T02:37:42.977Z,925.24
2017-03-17T02:38:01.831Z,925.27
2017-03-17T02:38:20.684Z,925.24
2017-03-17T02:38:39.529Z,925.23
2017-03-17T02:38:58.902Z,925.23
2017-03-17T02:39:18.240Z,925.21
2017-03-17T02:39:37.114Z,925.22
2017-03-17T02:39:56.550Z,925.22
2017-03-17T02:40:15.915Z,925.22
2017-03-17T02:40:34.930Z,925.21
2017-03-17T02:40:54.283Z,925.22
2017-03-17T02:41:13.652Z,925.22
2017-03-17T02:41:33.014Z,925.21
2017-03-17T02:41:52.441Z,925.2
2017-03-17T02:42:11.300Z,925.18
2017-03-17T02:42:30.694Z,925.15
2017-03-17T02:42:50.057Z,925.19
2017-03-17T02:43:09.431Z,925.17
2017-03-17T02:43:28.362Z,925.18
2017-03-17T02:43:47.304Z,925.2
2017-03-17T02:44:06.788Z,925.17
2017-03-17T02:44:24.579Z,925.2
2017-03-17T02:44:43.456Z,925.17
2017-03-17T02:45:02.857Z,925.18
2017-03-17T02:45:23.139Z,925.18
2017-03-17T02:45:42.467Z,925.18
2017-03-17T02:46:01.787Z,925.2
2017-03-17T02:46:21.185Z,925.17
2017-03-17T02:46:40.584Z,925.19
2017-03-17T02:46:59.905Z,925.17
2017-03-17T02:47:19.209Z,925.16
2017-03-17T02:47:38.531Z,925.14
2017-03-17T02:47:55.775Z,925.15
2017-03-17T02:48:15.107Z,925.2
2017-03-17T02:48:34.917Z,925.18
2017-03-17T02:48:53.743Z,925.17
2017-03-17T02:49:12.649Z,925.15
2017-03-17T02:49:31.969Z,925.18
2017-03-17T02:49:50.301Z,925.18
2017-03-17T02:50:09.873Z,925.18
2017-03-17T02:50:29.230Z,925.21
2017-03-17T02:50:48.073Z,925.21
2017-03-17T02:51:06.877Z,925.21
2017-03-17T02:51:26.208Z,925.2
2017-03-17T02:51:45.014Z,925.22
2017-03-17T02:52:04.336Z,925.23
2017-03-17T02:52:23.675Z,925.18
2017-03-17T02:52:43.015Z,925.21
2017-03-17T02:53:01.841Z,925.22
2017-03-17T02:53:21.160Z,925.19
2017-03-17T02:53:39.970Z,925.21
2017-03-17T02:53:58.769Z,925.19
2017-03-17T02:54:18.079Z,925.21
2017-03-17T02:54:37.445Z,925.2
2017-03-17T02:54:56.770Z,925.17
2017-03-17T02:55:16.074Z,925.24
2017-03-17T02:55:35.411Z,925.26
2017-03-17T02:55:54.742Z,925.23
2017-03-17T02:56:14.064Z,925.25
2017-03-17T02:56:33.380Z,925.25
2017-03-17T02:56:52.786Z,925.24
2017-03-17T02:57:11.585Z,925.23
2017-03-17T02:57:30.912Z,925.21
2017-03-17T02:57:50.270Z,925.24
2017-03-17T02:58:09.627Z,925.21
2017-03-17T02:58:28.441Z,925.26
2017-03-17T02:58:47.771Z,925.22
2017-03-17T02:59:07.350Z,925.19
2017-03-17T02:59:26.675Z,925.15
2017-03-17T02:59:44.978Z,925.19
2017-03-17T03:00:04.320Z,925.15
2017-03-17T03:00:23.623Z,925.19
2017-03-17T03:00:42.949Z,925.14
2017-03-17T03:01:02.274Z,925.17
2017-03-17T03:01:21.629Z,925.2
2017-03-17T03:01:40.952Z,925.17
2017-03-17T03:02:00.394Z,925.17
2017-03-17T03:02:19.742Z,925.18
2017-03-17T03:02:39.053Z,925.17
2017-03-17T03:02:57.873Z,925.16
2017-03-17T03:03:17.214Z,925.2
2017-03-17T03:03:36.538Z,925.16
2017-03-17T03:03:55.335Z,925.15
2017-03-17T03:04:14.661Z,925.2
2017-03-17T03:04:33.986Z,925.18
2017-03-17T03:04:53.320Z,925.19
2017-03-17T03:05:12.143Z,925.19
2017-03-17T03:05:31.486Z,925.15
2017-03-17T03:05:49.764Z,925.17
2017-03-17T03:06:09.069Z,925.2
2017-03-17T03:06:28.370Z,925.16
2017-03-17T03:06:47.677Z,925.14
2017-03-17T03:07:07.015Z,925.17
2017-03-17T03:07:26.325Z,925.18
2017-03-17T03:07:44.673Z,925.12
2017-03-17T03:08:03.994Z,925.15
2017-03-17T03:08:23.301Z,925.1
2017-03-17T03:08:42.638Z,925.14
2017-03-17T03:09:01.969Z,925.12
2017-03-17T03:09:21.279Z,925.12
2017-03-17T03:09:40.608Z,925.15
2017-03-17T03:09:59.891Z,925.13
2017-03-17T03:10:33.143Z,925.13
2017-03-17T03:10:52.413Z,925.2
2017-03-17T03:11:11.152Z,925.16
2017-03-17T03:11:30.448Z,925.14
2017-03-17T03:11:50.108Z,925.19
2017-03-17T03:12:09.512Z,925.15
2017-03-17T03:12:28.767Z,925.19
2017-03-17T03:12:48.038Z,925.16
2017-03-17T03:13:06.800Z,925.16
2017-03-17T03:13:26.111Z,925.17
2017-03-17T03:13:45.446Z,925.14
2017-03-17T03:14:04.786Z,925.13
2017-03-17T03:14:23.605Z,925.11
2017-03-17T03:14:42.935Z,925.15
2017-03-17T03:15:02.497Z,925.11
2017-03-17T03:15:21.317Z,925.12
2017-03-17T03:15:40.659Z,925.12
2017-03-17T03:15:59.979Z,925.16
2017-03-17T03:16:19.312Z,925.16
2017-03-17T03:16:38.627Z,925.14
2017-03-17T03:16:57.612Z,925.13
2017-03-17T03:17:16.449Z,925.13
2017-03-17T03:17:35.811Z,925.1
2017-03-17T03:17:55.122Z,925.09
2017-03-17T03:18:13.989Z,925.1
2017-03-17T03:18:33.315Z,925.14
2017-03-17T03:18:52.140Z,925.11
2017-03-17T03:19:11.467Z,925.1
2017-03-17T03:19:30.305Z,925.1
2017-03-17T03:19:49.155Z,925.1
2017-03-17T03:20:08.499Z,925.08
2017-03-17T03:20:27.843Z,925.07
2017-03-17T03:20:47.172Z,925.09
2017-03-17T03:21:06.484Z,925.07
2017-03-17T03:21:25.300Z,925.08
2017-03-17T03:21:44.624Z,925.07
2017-03-17T03:22:03.429Z,925.04
2017-03-17T03:22:22.303Z,925.04
2017-03-17T03:22:41.125Z,925.05
2017-03-17T03:23:00.440Z,925.05
2017-03-17T03:23:19.766Z,925.02
2017-03-17T03:23:38.567Z,925.03
2017-03-17T03:23:57.921Z,925.03
2017-03-17T03:24:17.455Z,925.02
2017-03-17T03:24:36.299Z,925.02
2017-03-17T03:24:55.584Z,925.01
2017-03-17T03:25:14.342Z,925.01
2017-03-17T03:25:33.652Z,924.97
2017-03-17T03:25:51.382Z,924.98
2017-03-17T03:26:10.129Z,924.98
2017-03-17T03:26:29.418Z,925
2017-03-17T03:26:48.704Z,925.01
2017-03-17T03:27:07.461Z,925.01
2017-03-17T03:27:26.235Z,924.98
2017-03-17T03:27:45.016Z,924.96
2017-03-17T03:28:04.312Z,924.99
2017-03-17T03:28:23.062Z,924.94
2017-03-17T03:28:42.338Z,924.94
2017-03-17T03:29:01.128Z,924.97
2017-03-17T03:29:20.426Z,924.96
2017-03-17T03:29:39.189Z,924.94
2017-03-17T03:29:57.961Z,924.86
2017-03-17T03:30:16.705Z,924.89
2017-03-17T03:30:35.958Z,924.92
2017-03-17T03:30:54.682Z,924.91
2017-03-17T03:31:13.976Z,924.91
2017-03-17T03:31:33.228Z,924.92
2017-03-17T03:31:52.133Z,924.87
2017-03-17T03:32:11.382Z,924.89
2017-03-17T03:32:30.662Z,924.87
2017-03-17T03:32:49.939Z,924.87
2017-03-17T03:33:09.221Z,924.87
2017-03-17T03:33:28.491Z,924.82
2017-03-17T03:33:47.828Z,924.85
2017-03-17T03:34:07.115Z,924.8
2017-03-17T03:34:25.901Z,924.83
2017-03-17T03:34:45.172Z,924.82
2017-03-17T03:35:04.454Z,924.84
2017-03-17T03:35:23.704Z,924.81
2017-03-17T03:35:42.987Z,924.85
2017-03-17T03:36:01.729Z,924.82
2017-03-17T03:36:21.008Z,924.83
2017-03-17T03:36:40.254Z,924.82
2017-03-17T03:36:59.100Z,924.81
2017-03-17T03:37:17.883Z,924.81
2017-03-17T03:37:37.141Z,924.82
2017-03-17T03:37:55.366Z,924.77
2017-03-17T03:38:14.138Z,924.85
2017-03-17T03:38:32.888Z,924.79
2017-03-17T03:38:52.141Z,924.83
2017-03-17T03:39:11.422Z,924.85
2017-03-17T03:39:30.718Z,924.84
2017-03-17T03:39:49.442Z,924.8
2017-03-17T03:40:08.901Z,924.81
2017-03-17T03:40:28.221Z,924.81
2017-03-17T03:40:46.960Z,924.81
2017-03-17T03:41:06.200Z,924.81
2017-03-17T03:41:25.470Z,924.81
2017-03-17T03:41:44.721Z,924.8
2017-03-17T03:42:04.018Z,924.79
2017-03-17T03:42:21.760Z,924.74
2017-03-17T03:42:41.006Z,924.8
2017-03-17T03:43:00.305Z,924.78
2017-03-17T03:43:19.085Z,924.84
2017-03-17T03:43:38.368Z,924.8
2017-03-17T03:43:56.106Z,924.83
2017-03-17T03:44:15.387Z,924.78
2017-03-17T03:44:34.119Z,924.81
2017-03-17T03:44:53.378Z,924.77
2017-03-17T03:45:12.655Z,924.82
2017-03-17T03:45:31.907Z,924.85
2017-03-17T03:45:51.178Z,924.87
2017-03-17T03:46:10.458Z,924.84
2017-03-17T03:46:29.779Z,924.83
2017-03-17T03:46:49.049Z,924.86
2017-03-17T03:47:08.298Z,924.84
2017-03-17T03:47:27.052Z,924.83
2017-03-17T03:47:46.315Z,924.83
2017-03-17T03:48:05.087Z,924.85
2017-03-17T03:48:23.327Z,924.84
2017-03-17T03:48:42.125Z,924.81
2017-03-17T03:49:01.406Z,924.83
2017-03-17T03:49:20.159Z,924.8
2017-03-17T03:49:38.955Z,924.8
2017-03-17T03:49:58.225Z,924.85
2017-03-17T03:50:17.478Z,924.81
2017-03-17T03:50:36.255Z,924.81
2017-03-17T03:50:55.517Z,924.76
2017-03-17T03:51:14.782Z,924.79
2017-03-17T03:51:34.056Z,924.78
2017-03-17T03:51:53.429Z,924.77
2017-03-17T03:52:12.724Z,924.76
2017-03-17T03:52:30.962Z,924.78
2017-03-17T03:52:50.249Z,924.76
2017-03-17T03:53:08.994Z,924.72
2017-03-17T03:53:28.255Z,924.74
2017-03-17T03:53:47.553Z,924.76
2017-03-17T03:54:06.826Z,924.74
2017-03-17T03:54:26.113Z,924.76
2017-03-17T03:54:44.911Z,924.75
2017-03-17T03:55:04.180Z,924.78
2017-03-17T03:55:23.449Z,924.77
2017-03-17T03:55:42.689Z,924.77
2017-03-17T03:56:01.951Z,924.76
2017-03-17T03:56:21.211Z,924.78
2017-03-17T03:56:40.479Z,924.76
2017-03-17T03:56:59.754Z,924.8
2017-03-17T03:57:19.028Z,924.75
2017-03-17T03:57:37.766Z,924.8
2017-03-17T03:57:57.050Z,924.8
2017-03-17T03:58:15.294Z,924.79
2017-03-17T03:58:34.110Z,924.82
2017-03-17T03:58:53.401Z,924.78
2017-03-17T03:59:12.656Z,924.79
2017-03-17T03:59:31.927Z,924.78
2017-03-17T03:59:51.238Z,924.75
2017-03-17T04:00:10.030Z,924.76
2017-03-17T04:00:29.343Z,924.78
2017-03-17T04:00:48.389Z,924.78
2017-03-17T04:01:08.029Z,924.78
2017-03-17T04:01:27.315Z,924.79
2017-03-17T04:01:45.582Z,924.78
2017-03-17T04:02:04.837Z,924.76
2017-03-17T04:02:23.589Z,924.71
2017-03-17T04:02:42.338Z,924.74
2017-03-17T04:03:01.629Z,924.76
2017-03-17T04:03:20.878Z,924.78
2017-03-17T04:03:40.147Z,924.77